Time;durP1;ratioP1;P1;durP2;ratioP2;P2;SDS_P1;SDS_P2;PMS_P1;PMS_P2;Temp;Humidity;BMP_temperature;BMP_pressure;BME280_temperature;BME280_humidity;BME280_pressure;Samples;Min_cycle;Max_cycle;Signal;HPM_P1;HPM_P2
2021/10/02 00:31:36;;;;;;;9.13;2.20;;;;;;;;;;5069459;28;20442;-84
2021/10/02 00:34:22;;;;;;;10.33;3.00;;;;;;;;;;5068892;28;20530;-84
2021/10/02 00:45:06;;;;;;;11.67;2.37;;;;;;;;;;5088775;28;20422;-84
2021/10/02 00:47:35;;;;;;;9.60;2.60;;;;;;;;;;5069541;28;20450;-83
2021/10/02 00:50:05;;;;;;;9.23;2.40;;;;;;;;;;5068466;28;20467;-83
2021/10/02 00:52:33;;;;;;;8.60;2.47;;;;;;;;;;5069058;28;20456;-84
2021/10/02 00:55:00;;;;;;;10.00;2.60;;;;;;;;;;5051455;28;20453;-83
2021/10/02 00:57:27;;;;;;;10.00;2.57;;;;;;;;;;5037512;28;20946;-82
2021/10/02 00:59:54;;;;;;;9.20;2.40;;;;;;;;;;5055321;28;20453;-82
2021/10/02 01:02:24;;;;;;;8.50;2.13;;;;;;;;;;5055033;28;20464;-83
2021/10/02 01:04:56;;;;;;;10.80;1.93;;;;;;;;;;5055612;28;20457;-84
2021/10/02 01:07:28;;;;;;;9.37;2.80;;;;;;;;;;5054916;28;20456;-85
2021/10/02 01:10:10;;;;;;;9.00;2.27;;;;;;;;;;5054811;28;20466;-84
2021/10/02 01:12:43;;;;;;;9.50;2.30;;;;;;;;;;5055080;28;20453;-83
2021/10/02 01:15:11;;;;;;;10.33;2.47;;;;;;;;;;5035548;28;20974;-83
2021/10/02 01:17:40;;;;;;;8.10;2.03;;;;;;;;;;5035826;28;20460;-83
2021/10/02 01:20:08;;;;;;;8.47;2.10;;;;;;;;;;5047644;28;20464;-84
2021/10/02 01:22:54;;;;;;;7.93;1.90;;;;;;;;;;5039268;28;20451;-84
2021/10/02 01:25:28;;;;;;;7.70;1.67;;;;;;;;;;5035316;28;20857;-84
2021/10/02 01:27:58;;;;;;;8.13;2.23;;;;;;;;;;5034411;28;20508;-84
2021/10/02 01:30:42;;;;;;;8.63;2.10;;;;;;;;;;5036830;28;20467;-84
2021/10/02 01:33:19;;;;;;;7.90;2.37;;;;;;;;;;5041187;28;20478;-84
2021/10/02 01:35:52;;;;;;;7.87;2.13;;;;;;;;;;5068422;28;20453;-85
2021/10/02 01:49:33;;;;;;;9.40;2.60;;;;;;;;;;5079121;28;20447;-85
2021/10/02 01:52:01;;;;;;;9.00;2.90;;;;;;;;;;5080063;28;20480;-83
2021/10/02 01:54:30;;;;;;;10.43;3.10;;;;;;;;;;5042497;28;20841;-82
2021/10/02 01:56:58;;;;;;;9.13;2.13;;;;;;;;;;5034837;28;20832;-82
2021/10/02 01:59:27;;;;;;;8.20;2.03;;;;;;;;;;5036204;28;20456;-84
2021/10/02 02:01:55;;;;;;;11.33;2.90;;;;;;;;;;5039163;28;20479;-83
2021/10/02 02:04:23;;;;;;;9.33;3.03;;;;;;;;;;5055089;28;20495;-82
2021/10/02 02:06:50;;;;;;;9.27;2.60;;;;;;;;;;5051941;28;20448;-82
2021/10/02 02:09:19;;;;;;;8.20;2.67;;;;;;;;;;5055047;28;20507;-83
2021/10/02 02:11:47;;;;;;;8.50;2.50;;;;;;;;;;5054003;28;20478;-83
2021/10/02 02:14:15;;;;;;;9.93;3.23;;;;;;;;;;5054724;28;20457;-83
2021/10/02 02:16:45;;;;;;;9.20;2.23;;;;;;;;;;5053857;28;20536;-83
2021/10/02 02:19:13;;;;;;;8.20;2.10;;;;;;;;;;5053943;28;20589;-83
2021/10/02 02:21:40;;;;;;;10.07;2.90;;;;;;;;;;5043875;28;20540;-83
2021/10/02 02:24:08;;;;;;;10.03;2.80;;;;;;;;;;5033794;28;20481;-83
2021/10/02 02:26:37;;;;;;;8.20;2.60;;;;;;;;;;5052151;28;20463;-82
2021/10/02 02:29:05;;;;;;;8.50;2.27;;;;;;;;;;5052659;28;20444;-83
2021/10/02 02:31:33;;;;;;;9.23;2.30;;;;;;;;;;5052640;28;21032;-83
2021/10/02 02:34:01;;;;;;;8.07;2.20;;;;;;;;;;5052949;28;20444;-84
2021/10/02 02:36:29;;;;;;;9.40;2.60;;;;;;;;;;5053251;28;20462;-83
2021/10/02 02:38:56;;;;;;;8.23;1.97;;;;;;;;;;5049329;28;20463;-83
2021/10/02 02:41:23;;;;;;;8.00;2.13;;;;;;;;;;5058697;28;20625;-83
2021/10/02 02:43:50;;;;;;;8.63;2.60;;;;;;;;;;5058466;28;20510;-83
2021/10/02 02:46:19;;;;;;;12.23;2.50;;;;;;;;;;5067243;28;20432;-85
2021/10/02 02:48:49;;;;;;;8.77;2.73;;;;;;;;;;5066310;28;20815;-83
2021/10/02 02:51:19;;;;;;;9.67;2.20;;;;;;;;;;5057412;28;21026;-83
2021/10/02 02:53:52;;;;;;;8.70;2.50;;;;;;;;;;5057712;28;20454;-84
2021/10/02 02:56:21;;;;;;;9.60;2.40;;;;;;;;;;5041909;28;20505;-83
2021/10/02 02:58:50;;;;;;;9.03;2.70;;;;;;;;;;5059615;28;20455;-84
2021/10/02 03:01:19;;;;;;;9.07;2.77;;;;;;;;;;5058712;28;20479;-85
2021/10/02 03:03:47;;;;;;;8.10;2.73;;;;;;;;;;5059490;28;20973;-84
2021/10/02 03:06:15;;;;;;;8.43;2.60;;;;;;;;;;5058440;28;20555;-84
2021/10/02 03:08:45;;;;;;;10.10;3.10;;;;;;;;;;5059211;28;20459;-83
2021/10/02 03:11:13;;;;;;;9.43;2.70;;;;;;;;;;5060198;28;20485;-85
2021/10/02 03:13:41;;;;;;;8.40;2.80;;;;;;;;;;5060944;28;20454;-83
2021/10/02 03:16:10;;;;;;;9.97;3.93;;;;;;;;;;5059064;28;20454;-83
2021/10/02 03:18:40;;;;;;;10.70;3.70;;;;;;;;;;5059351;28;20454;-83
2021/10/02 03:21:08;;;;;;;9.50;3.80;;;;;;;;;;5058265;28;20480;-83
2021/10/02 03:23:35;;;;;;;8.80;3.13;;;;;;;;;;5058061;28;20495;-83
2021/10/02 03:26:04;;;;;;;8.47;3.00;;;;;;;;;;5059076;28;20511;-84
2021/10/02 03:28:32;;;;;;;9.83;3.40;;;;;;;;;;5051921;28;20463;-84
2021/10/02 03:30:59;;;;;;;8.93;3.83;;;;;;;;;;5056302;28;20479;-85
2021/10/02 03:33:27;;;;;;;9.70;4.13;;;;;;;;;;5058857;28;20959;-82
2021/10/02 03:35:54;;;;;;;9.40;3.73;;;;;;;;;;5058546;28;20459;-83
2021/10/02 03:38:21;;;;;;;9.90;3.10;;;;;;;;;;5060218;28;20448;-84
2021/10/02 03:40:49;;;;;;;11.33;3.33;;;;;;;;;;5061001;28;20547;-84
2021/10/02 03:43:17;;;;;;;10.80;3.67;;;;;;;;;;5051948;28;20461;-84
2021/10/02 03:45:44;;;;;;;8.90;3.30;;;;;;;;;;5052553;28;20456;-85
2021/10/02 03:48:11;;;;;;;9.93;3.90;;;;;;;;;;5042061;28;20461;-84
2021/10/02 03:50:39;;;;;;;9.57;3.57;;;;;;;;;;5051053;28;21104;-84
2021/10/02 03:53:06;;;;;;;9.50;3.73;;;;;;;;;;5063359;28;20512;-85
2021/10/02 03:55:33;;;;;;;9.50;3.50;;;;;;;;;;5062706;28;20444;-83
2021/10/02 03:58:00;;;;;;;10.70;3.93;;;;;;;;;;5054827;28;20462;-82
2021/10/02 04:00:28;;;;;;;11.20;4.37;;;;;;;;;;5053529;28;20471;-85
2021/10/02 04:02:55;;;;;;;10.67;4.10;;;;;;;;;;5051426;28;21082;-84
2021/10/02 04:05:23;;;;;;;9.30;3.43;;;;;;;;;;5054551;28;20480;-85
2021/10/02 04:07:50;;;;;;;10.70;4.00;;;;;;;;;;5052263;28;20816;-84
2021/10/02 04:10:17;;;;;;;9.50;3.77;;;;;;;;;;5049129;28;20496;-84
2021/10/02 04:12:44;;;;;;;10.30;4.30;;;;;;;;;;5042305;28;20454;-84
2021/10/02 04:15:12;;;;;;;10.00;3.40;;;;;;;;;;5044388;28;20454;-85
2021/10/02 04:17:40;;;;;;;9.90;4.40;;;;;;;;;;5049126;28;21104;-85
2021/10/02 04:20:09;;;;;;;8.67;3.17;;;;;;;;;;5046607;28;20474;-86
2021/10/02 04:22:36;;;;;;;9.57;3.67;;;;;;;;;;5053069;28;20824;-85
2021/10/02 04:25:03;;;;;;;10.53;3.90;;;;;;;;;;5052268;28;20548;-85
2021/10/02 04:27:30;;;;;;;9.50;3.80;;;;;;;;;;5052324;28;20450;-85
2021/10/02 04:29:57;;;;;;;9.60;4.17;;;;;;;;;;5055857;28;20455;-84
2021/10/02 04:32:25;;;;;;;8.80;3.30;;;;;;;;;;5058299;28;20460;-85
2021/10/02 04:34:54;;;;;;;9.60;3.70;;;;;;;;;;5057464;28;20447;-84
2021/10/02 04:37:21;;;;;;;9.00;3.70;;;;;;;;;;5057275;28;20453;-85
2021/10/02 04:39:48;;;;;;;10.60;3.70;;;;;;;;;;5056840;28;20450;-84
2021/10/02 04:42:15;;;;;;;9.60;3.60;;;;;;;;;;5055737;28;20446;-85
2021/10/02 04:44:43;;;;;;;9.70;4.07;;;;;;;;;;5059860;28;20527;-85
2021/10/02 04:47:12;;;;;;;9.70;3.77;;;;;;;;;;5057632;28;20460;-85
2021/10/02 04:49:39;;;;;;;9.70;3.70;;;;;;;;;;5058443;28;20470;-86
2021/10/02 04:52:08;;;;;;;9.77;4.03;;;;;;;;;;5056183;28;20494;-86
2021/10/02 04:54:35;;;;;;;10.83;3.90;;;;;;;;;;5055392;28;20474;-86
2021/10/02 04:57:03;;;;;;;10.97;3.83;;;;;;;;;;5055215;28;20453;-87
2021/10/02 04:59:30;;;;;;;9.50;3.23;;;;;;;;;;5055156;28;20465;-86
2021/10/02 05:01:57;;;;;;;8.97;3.50;;;;;;;;;;5054735;28;20455;-87
2021/10/02 05:04:24;;;;;;;8.70;3.53;;;;;;;;;;5055614;28;20852;-86
2021/10/02 05:06:51;;;;;;;12.10;4.50;;;;;;;;;;5056001;28;20448;-85
2021/10/02 05:09:19;;;;;;;10.37;3.90;;;;;;;;;;5054940;28;20465;-86
2021/10/02 05:11:46;;;;;;;10.23;3.60;;;;;;;;;;5054606;28;20465;-86
2021/10/02 05:14:13;;;;;;;8.40;3.37;;;;;;;;;;5057015;28;20450;-86
2021/10/02 05:16:41;;;;;;;11.10;4.40;;;;;;;;;;5054971;28;20827;-85
2021/10/02 05:19:08;;;;;;;15.30;4.70;;;;;;;;;;5057602;28;20455;-85
2021/10/02 05:21:35;;;;;;;9.90;3.90;;;;;;;;;;5054322;28;20468;-86
2021/10/02 05:24:03;;;;;;;9.00;3.50;;;;;;;;;;5054846;28;20546;-86
2021/10/02 05:26:31;;;;;;;10.47;4.27;;;;;;;;;;5056052;28;20549;-85
2021/10/02 05:28:58;;;;;;;10.30;3.87;;;;;;;;;;5058410;28;20458;-84
2021/10/02 05:31:26;;;;;;;9.83;4.33;;;;;;;;;;5080834;22;20507;-82
2021/10/02 05:33:53;;;;;;;10.10;4.03;;;;;;;;;;5076511;28;20955;-84
2021/10/02 05:36:20;;;;;;;13.23;3.90;;;;;;;;;;5076659;28;20443;-82
2021/10/02 05:38:47;;;;;;;9.67;3.97;;;;;;;;;;5076665;28;20453;-83
2021/10/02 05:41:14;;;;;;;9.37;3.37;;;;;;;;;;5084456;28;20471;-83
2021/10/02 05:43:43;;;;;;;10.20;4.10;;;;;;;;;;5098677;28;20534;-84
2021/10/02 05:46:10;;;;;;;9.33;3.60;;;;;;;;;;5100166;28;20491;-83
2021/10/02 05:48:37;;;;;;;10.50;4.03;;;;;;;;;;5098521;28;20460;-80
2021/10/02 05:51:04;;;;;;;9.47;3.33;;;;;;;;;;5096887;28;20472;-79
2021/10/02 05:56:14;;;;;;;11.67;4.47;;;;;;;;;;5099318;28;20545;-85
2021/10/02 05:58:43;;;;;;;10.20;4.30;;;;;;;;;;5097338;28;20448;-82
2021/10/02 06:01:10;;;;;;;10.40;4.17;;;;;;;;;;5097790;28;20469;-82
2021/10/02 06:03:37;;;;;;;9.13;3.77;;;;;;;;;;5097200;28;20543;-84
2021/10/02 06:06:04;;;;;;;9.00;3.30;;;;;;;;;;5097094;28;20492;-81
2021/10/02 06:08:31;;;;;;;9.37;2.70;;;;;;;;;;5097167;28;20810;-82
2021/10/02 06:11:00;;;;;;;10.97;3.67;;;;;;;;;;5100238;28;20541;-81
2021/10/02 06:16:16;;;;;;;12.30;3.40;;;;;;;;;;5058615;28;20455;-85
2021/10/02 06:18:44;;;;;;;9.33;3.23;;;;;;;;;;5100351;28;20988;-85
2021/10/02 06:21:12;;;;;;;9.10;2.80;;;;;;;;;;5100694;28;20525;-86
2021/10/02 06:23:40;;;;;;;11.70;2.60;;;;;;;;;;5100093;28;20438;-83
2021/10/02 06:26:07;;;;;;;8.87;3.00;;;;;;;;;;5099619;28;20857;-86
2021/10/02 06:28:34;;;;;;;9.50;2.40;;;;;;;;;;5099526;28;20544;-84
2021/10/02 06:31:01;;;;;;;9.97;3.17;;;;;;;;;;5098703;28;20477;-85
2021/10/02 06:33:30;;;;;;;11.70;3.83;;;;;;;;;;5097991;28;20453;-85
2021/10/02 06:35:57;;;;;;;9.20;3.80;;;;;;;;;;5099248;28;20449;-84
2021/10/02 06:38:24;;;;;;;9.13;3.17;;;;;;;;;;5097569;28;20463;-86
2021/10/02 06:40:52;;;;;;;10.10;3.50;;;;;;;;;;5095298;28;20475;-87
2021/10/02 06:43:19;;;;;;;10.47;3.37;;;;;;;;;;5094714;28;20458;-85
2021/10/02 06:45:46;;;;;;;9.13;3.17;;;;;;;;;;5097069;28;20482;-87
2021/10/02 06:48:13;;;;;;;11.03;2.50;;;;;;;;;;5095220;28;20438;-85
2021/10/02 06:50:42;;;;;;;9.37;2.40;;;;;;;;;;5091067;28;20460;-86
2021/10/02 06:53:09;;;;;;;9.33;2.80;;;;;;;;;;5088923;28;20461;-85
2021/10/02 06:55:36;;;;;;;9.67;2.80;;;;;;;;;;5098427;28;20537;-83
2021/10/02 06:58:03;;;;;;;7.77;2.27;;;;;;;;;;5085040;28;20495;-82
2021/10/02 07:00:31;;;;;;;9.47;2.60;;;;;;;;;;5084486;28;20449;-84
2021/10/02 07:02:58;;;;;;;8.83;3.00;;;;;;;;;;5088397;28;20447;-82
2021/10/02 07:05:25;;;;;;;9.13;2.90;;;;;;;;;;5080657;28;20514;-82
2021/10/02 07:07:54;;;;;;;8.90;2.57;;;;;;;;;;5076016;28;20451;-83
2021/10/02 07:10:21;;;;;;;8.03;2.53;;;;;;;;;;5083901;28;20438;-83
2021/10/02 07:12:48;;;;;;;8.33;2.30;;;;;;;;;;5092902;28;20458;-84
2021/10/02 07:15:15;;;;;;;8.93;2.00;;;;;;;;;;5083819;28;20450;-83
2021/10/02 07:17:43;;;;;;;9.30;2.13;;;;;;;;;;5086226;28;20450;-82
2021/10/02 07:20:11;;;;;;;8.90;2.30;;;;;;;;;;5092415;28;20447;-82
2021/10/02 07:22:38;;;;;;;10.60;4.07;;;;;;;;;;5083124;28;20467;-82
2021/10/02 07:25:08;;;;;;;9.60;3.70;;;;;;;;;;5093841;28;20493;-84
2021/10/02 07:27:36;;;;;;;9.27;2.57;;;;;;;;;;5091250;28;20805;-82
2021/10/02 07:30:03;;;;;;;8.27;2.10;;;;;;;;;;5095296;28;20447;-82
2021/10/02 07:32:30;;;;;;;7.50;1.77;;;;;;;;;;5094943;28;20482;-81
2021/10/02 07:34:57;;;;;;;7.87;1.57;;;;;;;;;;5076960;28;20479;-84
2021/10/02 07:37:25;;;;;;;9.63;1.90;;;;;;;;;;5090773;28;20510;-84
2021/10/02 07:39:53;;;;;;;7.50;1.37;;;;;;;;;;5093621;28;20547;-83
2021/10/02 07:42:21;;;;;;;9.97;2.10;;;;;;;;;;5092640;28;20469;-86
2021/10/02 07:44:50;;;;;;;9.10;1.80;;;;;;;;;;5098116;28;20512;-81
2021/10/02 07:47:18;;;;;;;8.17;1.77;;;;;;;;;;5081963;28;20536;-84
2021/10/02 07:49:46;;;;;;;9.60;1.90;;;;;;;;;;5077111;28;20449;-84
2021/10/02 07:52:13;;;;;;;7.37;1.53;;;;;;;;;;5085026;28;20473;-83
2021/10/02 07:54:42;;;;;;;8.63;1.73;;;;;;;;;;5094714;28;20520;-83
2021/10/02 07:57:09;;;;;;;7.10;1.40;;;;;;;;;;5087283;28;20448;-83
2021/10/02 07:59:38;;;;;;;7.90;1.50;;;;;;;;;;5082213;28;20450;-82
2021/10/02 08:02:06;;;;;;;9.67;1.30;;;;;;;;;;5082899;28;20465;-84
2021/10/02 08:04:34;;;;;;;7.77;1.47;;;;;;;;;;5094907;28;20456;-83
2021/10/02 08:07:02;;;;;;;8.00;1.60;;;;;;;;;;5098207;28;20454;-84
2021/10/02 08:09:30;;;;;;;9.33;1.50;;;;;;;;;;5101241;28;20450;-83
2021/10/02 08:11:57;;;;;;;7.53;1.20;;;;;;;;;;5103520;28;20472;-83
2021/10/02 08:14:24;;;;;;;7.73;1.17;;;;;;;;;;5101477;28;20453;-84
2021/10/02 08:16:54;;;;;;;7.87;1.60;;;;;;;;;;5096854;28;20476;-86
2021/10/02 08:19:22;;;;;;;8.43;1.50;;;;;;;;;;5097671;28;20455;-85
2021/10/02 08:21:52;;;;;;;7.17;1.10;;;;;;;;;;5084409;28;20472;-81
2021/10/02 08:24:20;;;;;;;7.83;1.37;;;;;;;;;;5106211;28;21038;-86
2021/10/02 08:26:48;;;;;;;9.00;1.67;;;;;;;;;;5101585;28;20485;-83
2021/10/02 08:29:15;;;;;;;8.03;1.60;;;;;;;;;;5096315;28;20452;-84
2021/10/02 08:31:43;;;;;;;8.07;1.47;;;;;;;;;;5095760;28;20506;-83
2021/10/02 08:34:11;;;;;;;7.63;1.70;;;;;;;;;;5116909;28;20451;-84
2021/10/02 08:36:38;;;;;;;8.70;1.53;;;;;;;;;;5094730;28;20448;-82
2021/10/02 08:39:05;;;;;;;8.33;1.43;;;;;;;;;;5093627;28;20479;-85
2021/10/02 08:41:35;;;;;;;7.57;1.20;;;;;;;;;;5097636;28;20894;-83
2021/10/02 08:44:03;;;;;;;7.40;1.37;;;;;;;;;;5078037;28;20447;-83
2021/10/02 08:46:30;;;;;;;7.30;1.30;;;;;;;;;;5097845;28;20487;-83
2021/10/02 08:49:05;;;;;;;7.60;1.40;;;;;;;;;;5118060;28;20455;-83
2021/10/02 08:51:34;;;;;;;8.10;1.30;;;;;;;;;;5118536;28;20470;-81
2021/10/02 08:54:02;;;;;;;7.53;1.30;;;;;;;;;;5113812;28;20456;-83
2021/10/02 08:56:32;;;;;;;6.90;1.00;;;;;;;;;;5098154;28;20446;-82
2021/10/02 08:58:59;;;;;;;9.33;1.37;;;;;;;;;;5097184;28;20453;-82
2021/10/02 09:01:27;;;;;;;8.00;1.60;;;;;;;;;;5097605;28;20496;-81
2021/10/02 09:03:54;;;;;;;8.00;1.00;;;;;;;;;;5097839;28;20454;-82
2021/10/02 09:06:21;;;;;;;8.13;1.30;;;;;;;;;;5096788;28;20483;-83
2021/10/02 09:08:50;;;;;;;7.30;1.20;;;;;;;;;;5096796;28;20457;-83
2021/10/02 09:11:17;;;;;;;7.80;1.30;;;;;;;;;;5099068;28;20562;-80
2021/10/02 09:13:45;;;;;;;7.80;1.20;;;;;;;;;;5103268;28;20775;-80
2021/10/02 09:16:12;;;;;;;7.60;1.33;;;;;;;;;;5099424;28;20435;-83
2021/10/02 09:18:40;;;;;;;10.20;1.30;;;;;;;;;;5096396;28;20447;-83
2021/10/02 09:21:07;;;;;;;7.70;1.20;;;;;;;;;;5096432;28;20487;-83
2021/10/02 09:23:41;;;;;;;7.23;1.17;;;;;;;;;;5096474;28;20533;-82
2021/10/02 09:26:09;;;;;;;7.50;1.10;;;;;;;;;;5095859;28;21014;-85
2021/10/02 09:28:40;;;;;;;7.87;1.20;;;;;;;;;;5096011;28;20451;-83
2021/10/02 09:31:07;;;;;;;9.77;1.37;;;;;;;;;;5095573;28;20474;-84
2021/10/02 09:33:35;;;;;;;7.47;1.10;;;;;;;;;;5086512;28;20467;-84
2021/10/02 09:36:02;;;;;;;7.80;1.30;;;;;;;;;;5080796;28;20454;-79
2021/10/02 09:38:32;;;;;;;8.47;1.00;;;;;;;;;;5075510;28;20453;-84
2021/10/02 09:41:01;;;;;;;8.10;1.20;;;;;;;;;;5074959;28;20479;-81
2021/10/02 09:43:31;;;;;;;7.47;1.13;;;;;;;;;;5075429;28;20465;-81
2021/10/02 09:45:58;;;;;;;8.50;1.20;;;;;;;;;;5076561;28;20498;-80
2021/10/02 09:48:27;;;;;;;7.57;1.10;;;;;;;;;;5094821;28;20561;-85
2021/10/02 09:50:55;;;;;;;8.30;1.30;;;;;;;;;;5094773;28;20845;-81
2021/10/02 09:53:22;;;;;;;8.03;1.13;;;;;;;;;;5094843;28;20446;-80
2021/10/02 09:55:50;;;;;;;7.97;1.17;;;;;;;;;;5095232;28;20614;-85
2021/10/02 09:58:18;;;;;;;7.60;1.30;;;;;;;;;;5094527;28;20446;-85
2021/10/02 10:00:48;;;;;;;8.00;1.20;;;;;;;;;;5095169;28;20492;-81
2021/10/02 10:03:16;;;;;;;7.47;1.17;;;;;;;;;;5094370;28;20524;-82
2021/10/02 10:05:44;;;;;;;8.70;1.40;;;;;;;;;;5081208;28;20995;-82
2021/10/02 10:08:12;;;;;;;8.00;1.50;;;;;;;;;;5074555;28;20446;-81
2021/10/02 10:10:40;;;;;;;9.20;1.13;;;;;;;;;;5075374;28;20953;-82
2021/10/02 10:13:12;;;;;;;7.63;1.53;;;;;;;;;;5085647;28;20443;-83
2021/10/02 10:15:40;;;;;;;8.80;1.37;;;;;;;;;;5086845;28;20954;-85
2021/10/02 10:18:10;;;;;;;8.87;1.70;;;;;;;;;;5084089;28;20485;-86
2021/10/02 10:20:39;;;;;;;8.93;1.67;;;;;;;;;;5094333;28;20449;-85
2021/10/02 10:23:07;;;;;;;8.37;1.50;;;;;;;;;;5098867;28;20442;-84
2021/10/02 10:25:34;;;;;;;8.60;1.40;;;;;;;;;;5103014;28;20489;-84
2021/10/02 10:28:03;;;;;;;7.47;1.33;;;;;;;;;;5102201;28;20450;-85
2021/10/02 10:30:31;;;;;;;7.60;1.47;;;;;;;;;;5103530;28;20449;-84
2021/10/02 10:33:00;;;;;;;8.50;1.50;;;;;;;;;;5097682;28;20816;-85
2021/10/02 10:35:29;;;;;;;7.23;1.03;;;;;;;;;;5091327;28;20525;-84
2021/10/02 10:37:57;;;;;;;7.20;1.30;;;;;;;;;;5089423;28;20446;-84
2021/10/02 10:40:24;;;;;;;10.30;1.70;;;;;;;;;;5090292;28;20827;-83
2021/10/02 10:42:55;;;;;;;9.30;2.30;;;;;;;;;;5093576;28;20533;-82
2021/10/02 10:45:23;;;;;;;9.13;1.97;;;;;;;;;;5086923;28;20525;-82
2021/10/02 10:47:50;;;;;;;8.00;1.20;;;;;;;;;;5091608;28;20446;-85
2021/10/02 10:50:17;;;;;;;8.90;1.10;;;;;;;;;;5090669;28;20532;-84
2021/10/02 10:52:47;;;;;;;8.77;1.80;;;;;;;;;;5091591;28;20986;-85
2021/10/02 10:55:15;;;;;;;9.57;1.53;;;;;;;;;;5092092;28;20463;-82
2021/10/02 10:57:44;;;;;;;7.80;1.40;;;;;;;;;;5092068;28;20442;-83
2021/10/02 11:00:13;;;;;;;7.30;1.10;;;;;;;;;;5090427;28;20509;-84
2021/10/02 11:02:44;;;;;;;7.20;1.10;;;;;;;;;;5087919;28;20553;-84
2021/10/02 11:05:26;;;;;;;7.37;1.33;;;;;;;;;;5084940;28;20468;-83
2021/10/02 11:07:55;;;;;;;7.43;1.07;;;;;;;;;;5090336;28;20508;-83
2021/10/02 11:10:40;;;;;;;8.03;1.47;;;;;;;;;;5089196;28;20448;-82
2021/10/02 11:13:07;;;;;;;7.83;1.30;;;;;;;;;;5088575;28;20448;-84
2021/10/02 11:15:35;;;;;;;7.70;1.40;;;;;;;;;;5093617;28;20510;-85
2021/10/02 11:18:02;;;;;;;8.30;1.40;;;;;;;;;;5100773;28;20536;-84
2021/10/02 11:20:30;;;;;;;7.80;1.30;;;;;;;;;;5101435;28;20757;-84
2021/10/02 11:23:17;;;;;;;7.77;1.50;;;;;;;;;;5095040;28;20469;-85
2021/10/02 11:25:45;;;;;;;7.80;1.43;;;;;;;;;;5090684;28;20533;-84
2021/10/02 11:28:32;;;;;;;9.07;2.03;;;;;;;;;;5092206;28;20457;-85
2021/10/02 11:30:59;;;;;;;7.90;1.30;;;;;;;;;;5093723;22;20550;-85
2021/10/02 11:33:33;;;;;;;8.30;1.40;;;;;;;;;;5059929;28;20467;-83
2021/10/02 11:36:00;;;;;;;7.70;1.20;;;;;;;;;;5059724;28;20445;-83
2021/10/02 11:38:37;;;;;;;7.80;1.40;;;;;;;;;;5060314;28;20967;-83
2021/10/02 11:41:22;;;;;;;8.13;1.40;;;;;;;;;;5059427;28;20933;-82
2021/10/02 11:43:54;;;;;;;8.77;1.43;;;;;;;;;;5042124;28;20505;-83
2021/10/02 11:46:24;;;;;;;8.10;1.40;;;;;;;;;;5060224;28;20559;-83
2021/10/02 11:48:52;;;;;;;7.90;1.37;;;;;;;;;;5060955;28;20958;-83
2021/10/02 11:51:26;;;;;;;8.03;1.63;;;;;;;;;;5061891;28;20551;-83
2021/10/02 11:53:54;;;;;;;9.53;1.60;;;;;;;;;;5060816;28;20459;-82
2021/10/02 11:56:24;;;;;;;7.63;1.40;;;;;;;;;;5054622;28;20444;-82
2021/10/02 11:58:52;;;;;;;7.90;1.47;;;;;;;;;;5060646;28;20440;-82
2021/10/02 12:01:20;;;;;;;8.00;1.20;;;;;;;;;;5065355;28;20477;-81
2021/10/02 12:03:48;;;;;;;7.40;1.20;;;;;;;;;;5055410;28;20467;-80
2021/10/02 12:06:19;;;;;;;8.33;1.10;;;;;;;;;;5053069;28;20493;-82
2021/10/02 12:08:46;;;;;;;7.60;1.20;;;;;;;;;;5055735;28;20485;-81
2021/10/02 12:11:14;;;;;;;8.70;1.03;;;;;;;;;;5056670;28;20460;-81
2021/10/02 12:13:45;;;;;;;10.20;1.17;;;;;;;;;;5060365;28;20460;-82
2021/10/02 12:16:13;;;;;;;7.77;1.10;;;;;;;;;;5057465;28;20862;-82
2021/10/02 12:18:44;;;;;;;7.63;0.90;;;;;;;;;;5056284;28;20462;-81
2021/10/02 12:21:13;;;;;;;8.70;1.10;;;;;;;;;;5041723;28;20452;-81
2021/10/02 12:23:50;;;;;;;8.50;1.20;;;;;;;;;;5057602;28;20452;-82
2021/10/02 12:26:17;;;;;;;8.57;1.20;;;;;;;;;;5074236;28;20885;-81
2021/10/02 12:28:46;;;;;;;8.17;1.37;;;;;;;;;;5068646;28;20448;-81
2021/10/02 12:31:13;;;;;;;8.37;1.07;;;;;;;;;;5056832;28;20470;-82
2021/10/02 12:33:40;;;;;;;8.00;1.10;;;;;;;;;;5057070;28;20452;-81
2021/10/02 12:36:08;;;;;;;7.83;1.07;;;;;;;;;;5056908;28;20452;-80
2021/10/02 12:38:42;;;;;;;7.50;1.10;;;;;;;;;;5057579;28;20459;-81
2021/10/02 12:41:09;;;;;;;7.50;1.10;;;;;;;;;;5057122;28;20532;-81
2021/10/02 12:43:36;;;;;;;8.37;1.30;;;;;;;;;;5057040;28;20454;-82
2021/10/02 12:46:15;;;;;;;8.23;1.13;;;;;;;;;;5054485;28;20461;-82
2021/10/02 12:48:42;;;;;;;7.43;1.10;;;;;;;;;;5057408;28;20497;-82
2021/10/02 12:51:09;;;;;;;8.07;1.00;;;;;;;;;;5064452;28;20850;-83
2021/10/02 12:53:37;;;;;;;7.80;1.10;;;;;;;;;;5081281;28;20442;-82
2021/10/02 12:56:15;;;;;;;8.10;1.00;;;;;;;;;;5063571;28;20470;-81
2021/10/02 12:58:42;;;;;;;8.07;1.10;;;;;;;;;;5059832;28;20458;-83
2021/10/02 13:01:11;;;;;;;8.20;1.40;;;;;;;;;;5062634;28;20478;-83
2021/10/02 13:03:39;;;;;;;8.30;1.47;;;;;;;;;;5072083;28;20439;-84
2021/10/02 13:06:07;;;;;;;8.57;1.60;;;;;;;;;;5071993;28;20458;-82
2021/10/02 13:08:34;;;;;;;9.37;1.50;;;;;;;;;;5050850;28;20451;-82
2021/10/02 13:11:01;;;;;;;9.30;1.30;;;;;;;;;;5049097;28;20479;-82
2021/10/02 13:13:29;;;;;;;8.50;1.20;;;;;;;;;;5051947;28;20453;-81
2021/10/02 13:15:56;;;;;;;8.87;1.00;;;;;;;;;;5055405;28;20444;-83
2021/10/02 13:18:26;;;;;;;8.53;1.10;;;;;;;;;;5054583;28;20441;-82
2021/10/02 13:20:54;;;;;;;12.00;3.20;;;;;;;;;;5049894;28;20960;-82
2021/10/02 13:23:22;;;;;;;9.87;2.50;;;;;;;;;;5049516;28;20479;-82
2021/10/02 13:25:53;;;;;;;9.07;1.67;;;;;;;;;;5050714;28;20456;-82
2021/10/02 13:28:22;;;;;;;8.00;1.00;;;;;;;;;;5050369;28;20483;-81
2021/10/02 13:30:49;;;;;;;8.53;1.43;;;;;;;;;;5051329;28;20464;-81
2021/10/02 13:33:16;;;;;;;8.30;1.20;;;;;;;;;;5054461;28;20516;-82
2021/10/02 13:35:50;;;;;;;8.60;2.67;;;;;;;;;;5043724;28;20453;-81
2021/10/02 13:38:17;;;;;;;8.20;1.70;;;;;;;;;;5061900;28;20464;-81
2021/10/02 13:40:52;;;;;;;9.00;1.30;;;;;;;;;;5061950;28;20467;-82
2021/10/02 13:43:22;;;;;;;8.50;1.40;;;;;;;;;;5063018;28;20462;-83
2021/10/02 13:45:52;;;;;;;8.30;1.30;;;;;;;;;;5051798;28;20452;-82
2021/10/02 13:48:24;;;;;;;9.13;1.37;;;;;;;;;;5041190;28;20494;-82
2021/10/02 13:50:53;;;;;;;8.63;1.40;;;;;;;;;;5060032;28;20455;-82
2021/10/02 13:53:20;;;;;;;8.47;1.07;;;;;;;;;;5067720;28;20480;-82
2021/10/02 13:55:47;;;;;;;8.53;1.53;;;;;;;;;;5042641;28;20449;-81
2021/10/02 13:58:15;;;;;;;9.13;1.30;;;;;;;;;;5054495;28;20458;-82
2021/10/02 14:00:42;;;;;;;8.80;1.60;;;;;;;;;;5060470;28;20447;-80
2021/10/02 14:03:09;;;;;;;10.77;1.63;;;;;;;;;;5057141;28;20534;-80
2021/10/02 14:05:38;;;;;;;8.50;1.50;;;;;;;;;;5057894;28;20457;-81
2021/10/02 14:08:07;;;;;;;8.67;1.30;;;;;;;;;;5054781;28;20487;-81
2021/10/02 14:10:34;;;;;;;9.23;1.30;;;;;;;;;;5059775;28;20458;-81
2021/10/02 14:13:02;;;;;;;9.20;1.20;;;;;;;;;;5056946;28;21061;-81
2021/10/02 14:15:29;;;;;;;8.77;1.20;;;;;;;;;;5057423;28;20626;-81
2021/10/02 14:17:56;;;;;;;9.30;1.37;;;;;;;;;;5059813;28;20450;-82
2021/10/02 14:20:24;;;;;;;8.87;1.43;;;;;;;;;;5043765;28;20447;-82
2021/10/02 14:22:51;;;;;;;7.90;1.00;;;;;;;;;;5048767;28;20483;-80
2021/10/02 14:25:20;;;;;;;8.23;1.37;;;;;;;;;;5057873;28;20469;-81
2021/10/02 14:27:47;;;;;;;8.40;1.30;;;;;;;;;;5054423;28;20479;-81
2021/10/02 14:30:14;;;;;;;10.37;1.73;;;;;;;;;;5056272;28;20451;-79
2021/10/02 14:32:42;;;;;;;9.07;1.43;;;;;;;;;;5056224;28;20485;-81
2021/10/02 14:35:09;;;;;;;9.20;1.27;;;;;;;;;;5057209;28;20454;-81
2021/10/02 14:37:36;;;;;;;9.50;1.47;;;;;;;;;;5059504;28;20447;-81
2021/10/02 14:40:05;;;;;;;13.13;2.27;;;;;;;;;;5056811;28;20460;-81
2021/10/02 14:42:34;;;;;;;9.30;1.40;;;;;;;;;;5058718;28;20479;-81
2021/10/02 14:45:01;;;;;;;9.90;1.50;;;;;;;;;;5053836;28;20455;-81
2021/10/02 14:47:29;;;;;;;8.40;1.40;;;;;;;;;;5055418;28;20511;-81
2021/10/02 14:49:56;;;;;;;8.43;1.27;;;;;;;;;;5059331;28;20447;-81
2021/10/02 14:52:23;;;;;;;11.53;1.67;;;;;;;;;;5050280;28;20473;-81
2021/10/02 14:54:51;;;;;;;8.93;1.37;;;;;;;;;;5051616;28;20456;-81
2021/10/02 14:57:21;;;;;;;8.20;1.50;;;;;;;;;;5052475;28;20453;-81
2021/10/02 14:59:51;;;;;;;8.00;1.30;;;;;;;;;;5054659;28;20462;-81
2021/10/02 15:02:18;;;;;;;10.23;1.80;;;;;;;;;;5067930;28;20922;-83
2021/10/02 15:04:46;;;;;;;8.40;1.50;;;;;;;;;;5055852;28;20846;-83
2021/10/02 15:07:13;;;;;;;9.90;1.43;;;;;;;;;;5058257;28;20502;-82
2021/10/02 15:09:41;;;;;;;10.50;1.37;;;;;;;;;;5058316;28;20444;-85
2021/10/02 15:12:08;;;;;;;8.40;1.40;;;;;;;;;;5050077;28;20466;-83
2021/10/02 15:14:36;;;;;;;9.20;1.50;;;;;;;;;;5059004;28;20461;-83
2021/10/02 15:17:05;;;;;;;9.10;1.60;;;;;;;;;;5056913;28;20453;-82
2021/10/02 15:19:32;;;;;;;9.03;1.57;;;;;;;;;;5054061;28;20456;-82
2021/10/02 15:22:00;;;;;;;9.23;1.70;;;;;;;;;;5057416;28;20476;-83
2021/10/02 15:24:28;;;;;;;9.67;1.53;;;;;;;;;;5058418;28;20460;-83
2021/10/02 15:26:56;;;;;;;9.40;1.57;;;;;;;;;;5049808;28;20454;-82
2021/10/02 15:29:25;;;;;;;8.73;1.50;;;;;;;;;;5052089;28;20458;-84
2021/10/02 15:31:52;;;;;;;8.70;1.73;;;;;;;;;;5060298;28;20491;-83
2021/10/02 15:34:23;;;;;;;8.20;1.33;;;;;;;;;;5057646;28;20474;-82
2021/10/02 15:36:51;;;;;;;8.30;1.47;;;;;;;;;;5058505;28;20508;-82
2021/10/02 15:39:19;;;;;;;9.73;1.93;;;;;;;;;;5065659;28;20510;-83
2021/10/02 15:41:48;;;;;;;8.73;1.80;;;;;;;;;;5057325;28;20484;-81
2021/10/02 15:44:15;;;;;;;9.60;1.60;;;;;;;;;;5059232;28;20462;-83